Search for airport 
image banner adimage banner adimage banner ad
image banner ad

IA84 - Lawton

Located in Lawton, United States

ICAO - IA84, IATA -

Data provided by Airmate  

General information

Coordinates: N42°28'60" W96°12'1"
Elevation is 1235 feet MSL.
Magnetic variation is 06° East
View others Airports in Iowa

Operational data

Special qualification required
Current time UTC:
Current local time:
METAR: KSUX 181752Z 16008KT 10SM CLR 29/14 A2987 RMK AO2 SLP105 T02940144 10300 20172 50005
TAF: KSUX 181733Z 1818/1918 11008KT P6SM FEW250 FM190200 VRB05KT P6SM FEW250 FM190900 36008KT P6SM FEW250
View NOTAMs / SUP AIP / TFR affecting this airport [VIEW]
Communications frequencies: [VIEW]

Runways:

RWY identifierQFULength (ft)Width (ft)SurfaceLDA (ft)
17232090GRASS
35232090GRASS

Airport contact information

Address: Lawton United States

Satellite view of IA84